sensor_id;sensor_type;location;lat;lon;timestamp;temperature;humidity
6536;DHT22;34330;52.08032700;5.40923460;2024-03-08T00:00:42;7.30;89.40
6536;DHT22;34330;52.08032700;5.40923460;2024-03-08T00:03:10;7.30;89.20
6536;DHT22;34330;52.08032700;5.40923460;2024-03-08T00:05:38;7.30;89.60
6536;DHT22;34330;52.08032700;5.40923460;2024-03-08T00:08:07;7.30;89.50
6536;DHT22;34330;52.08032700;5.40923460;2024-03-08T00:10:36;7.30;89.50
6536;DHT22;34330;52.08032700;5.40923460;2024-03-08T00:13:07;7.20;89.10
6536;DHT22;34330;52.08032700;5.40923460;2024-03-08T00:15:35;7.20;89.30
6536;DHT22;34330;52.08032700;5.40923460;2024-03-08T00:18:03;7.20;89.20
6536;DHT22;34330;52.08032700;5.40923460;2024-03-08T00:20:32;7.20;89.40
6536;DHT22;34330;52.08032700;5.40923460;2024-03-08T00:23:00;7.20;89.40
6536;DHT22;34330;52.08032700;5.40923460;2024-03-08T00:25:28;7.20;89.40
6536;DHT22;34330;52.08032700;5.40923460;2024-03-08T00:27:59;7.50;89.60
6536;DHT22;34330;52.08032700;5.40923460;2024-03-08T00:30:29;7.10;88.60
6536;DHT22;34330;52.08032700;5.40923460;2024-03-08T00:33:00;7.10;89.40
6536;DHT22;34330;52.08032700;5.40923460;2024-03-08T00:35:28;7.00;89.20
6536;DHT22;34330;52.08032700;5.40923460;2024-03-08T00:37:57;7.00;89.40
6536;DHT22;34330;52.08032700;5.40923460;2024-03-08T00:40:25;8.10;90.20
6536;DHT22;34330;52.08032700;5.40923460;2024-03-08T00:42:54;8.10;90.00
6536;DHT22;34330;52.08032700;5.40923460;2024-03-08T00:45:24;7.00;89.50
6536;DHT22;34330;52.08032700;5.40923460;2024-03-08T00:47:53;7.00;89.50
6536;DHT22;34330;52.08032700;5.40923460;2024-03-08T00:50:22;6.90;89.40
6536;DHT22;34330;52.08032700;5.40923460;2024-03-08T00:52:50;6.90;89.50
6536;DHT22;34330;52.08032700;5.40923460;2024-03-08T00:55:21;6.90;89.50
6536;DHT22;34330;52.08032700;5.40923460;2024-03-08T00:57:49;6.90;89.30
6536;DHT22;34330;52.08032700;5.40923460;2024-03-08T01:00:20;6.80;89.30
6536;DHT22;34330;52.08032700;5.40923460;2024-03-08T01:02:49;6.80;89.30
6536;DHT22;34330;52.08032700;5.40923460;2024-03-08T01:05:18;6.80;89.50
6536;DHT22;34330;52.08032700;5.40923460;2024-03-08T01:07:46;6.80;89.50
6536;DHT22;34330;52.08032700;5.40923460;2024-03-08T01:10:14;8.10;90.40
6536;DHT22;34330;52.08032700;5.40923460;2024-03-08T01:12:42;6.80;89.60
6536;DHT22;34330;52.08032700;5.40923460;2024-03-08T01:15:11;6.70;89.40
6536;DHT22;34330;52.08032700;5.40923460;2024-03-08T01:17:39;6.70;89.60
6536;DHT22;34330;52.08032700;5.40923460;2024-03-08T01:20:08;4.50;87.60
6536;DHT22;34330;52.08032700;5.40923460;2024-03-08T01:22:40;6.70;89.70
6536;DHT22;34330;52.08032700;5.40923460;2024-03-08T01:25:08;6.70;89.70
6536;DHT22;34330;52.08032700;5.40923460;2024-03-08T01:27:36;6.60;89.60
6536;DHT22;34330;52.08032700;5.40923460;2024-03-08T01:30:05;6.60;89.60
6536;DHT22;34330;52.08032700;5.40923460;2024-03-08T01:32:34;6.60;89.80
6536;DHT22;34330;52.08032700;5.40923460;2024-03-08T01:35:03;6.60;89.70
6536;DHT22;34330;52.08032700;5.40923460;2024-03-08T01:37:31;6.50;89.80
6536;DHT22;34330;52.08032700;5.40923460;2024-03-08T01:40:01;6.50;89.60
6536;DHT22;34330;52.08032700;5.40923460;2024-03-08T01:42:29;6.50;89.40
6536;DHT22;34330;52.08032700;5.40923460;2024-03-08T01:44:58;7.80;90.40
6536;DHT22;34330;52.08032700;5.40923460;2024-03-08T01:47:26;6.40;89.40
6536;DHT22;34330;52.08032700;5.40923460;2024-03-08T01:49:58;6.40;89.80
6536;DHT22;34330;52.08032700;5.40923460;2024-03-08T01:52:26;6.30;89.20
6536;DHT22;34330;52.08032700;5.40923460;2024-03-08T01:54:55;6.30;89.60
6536;DHT22;34330;52.08032700;5.40923460;2024-03-08T01:57:25;6.30;89.70
6536;DHT22;34330;52.08032700;5.40923460;2024-03-08T01:59:53;6.30;89.60
6536;DHT22;34330;52.08032700;5.40923460;2024-03-08T02:02:23;6.20;89.70
6536;DHT22;34330;52.08032700;5.40923460;2024-03-08T02:04:51;6.20;90.10
6536;DHT22;34330;52.08032700;5.40923460;2024-03-08T02:07:20;6.20;89.70
6536;DHT22;34330;52.08032700;5.40923460;2024-03-08T02:09:48;6.20;89.80
6536;DHT22;34330;52.08032700;5.40923460;2024-03-08T02:12:18;6.20;89.80
6536;DHT22;34330;52.08032700;5.40923460;2024-03-08T02:14:49;6.20;89.70
6536;DHT22;34330;52.08032700;5.40923460;2024-03-08T02:17:17;6.10;89.80
6536;DHT22;34330;52.08032700;5.40923460;2024-03-08T02:19:45;6.10;89.70
6536;DHT22;34330;52.08032700;5.40923460;2024-03-08T02:22:14;6.10;89.70
6536;DHT22;34330;52.08032700;5.40923460;2024-03-08T02:24:43;6.10;89.70
6536;DHT22;34330;52.08032700;5.40923460;2024-03-08T02:27:11;6.10;89.70
6536;DHT22;34330;52.08032700;5.40923460;2024-03-08T02:29:40;6.00;89.70
6536;DHT22;34330;52.08032700;5.40923460;2024-03-08T02:32:11;6.00;89.80
6536;DHT22;34330;52.08032700;5.40923460;2024-03-08T02:34:39;6.00;89.60
6536;DHT22;34330;52.08032700;5.40923460;2024-03-08T02:37:07;6.00;89.40
6536;DHT22;34330;52.08032700;5.40923460;2024-03-08T02:39:36;6.00;89.70
6536;DHT22;34330;52.08032700;5.40923460;2024-03-08T02:42:05;5.90;89.60
6536;DHT22;34330;52.08032700;5.40923460;2024-03-08T02:44:33;5.90;89.60
6536;DHT22;34330;52.08032700;5.40923460;2024-03-08T02:47:01;5.90;89.60
6536;DHT22;34330;52.08032700;5.40923460;2024-03-08T02:49:30;5.90;89.20
6536;DHT22;34330;52.08032700;5.40923460;2024-03-08T02:51:59;5.90;90.00
6536;DHT22;34330;52.08032700;5.40923460;2024-03-08T02:54:26;7.00;90.30
6536;DHT22;34330;52.08032700;5.40923460;2024-03-08T02:56:56;5.80;89.60
6536;DHT22;34330;52.08032700;5.40923460;2024-03-08T02:59:24;5.80;89.50
6536;DHT22;34330;52.08032700;5.40923460;2024-03-08T03:01:52;5.80;89.40
6536;DHT22;34330;52.08032700;5.40923460;2024-03-08T03:04:20;5.80;89.50
6536;DHT22;34330;52.08032700;5.40923460;2024-03-08T03:06:50;5.80;89.60
6536;DHT22;34330;52.08032700;5.40923460;2024-03-08T03:09:18;5.80;89.20
6536;DHT22;34330;52.08032700;5.40923460;2024-03-08T03:11:50;7.70;90.30
6536;DHT22;34330;52.08032700;5.40923460;2024-03-08T03:14:20;5.80;89.40
6536;DHT22;34330;52.08032700;5.40923460;2024-03-08T03:16:48;5.70;89.60
6536;DHT22;34330;52.08032700;5.40923460;2024-03-08T03:19:16;5.80;89.70
6536;DHT22;34330;52.08032700;5.40923460;2024-03-08T03:21:44;5.70;89.70
6536;DHT22;34330;52.08032700;5.40923460;2024-03-08T03:24:12;5.70;89.70
6536;DHT22;34330;52.08032700;5.40923460;2024-03-08T03:26:43;5.70;89.30
6536;DHT22;34330;52.08032700;5.40923460;2024-03-08T03:29:12;6.50;90.00
6536;DHT22;34330;52.08032700;5.40923460;2024-03-08T03:31:41;5.60;89.30
6536;DHT22;34330;52.08032700;5.40923460;2024-03-08T03:34:12;5.60;88.90
6536;DHT22;34330;52.08032700;5.40923460;2024-03-08T03:36:40;5.60;89.00
6536;DHT22;34330;52.08032700;5.40923460;2024-03-08T03:39:10;5.60;89.10
6536;DHT22;34330;52.08032700;5.40923460;2024-03-08T03:41:42;5.50;89.00
6536;DHT22;34330;52.08032700;5.40923460;2024-03-08T03:44:12;5.50;88.90
6536;DHT22;34330;52.08032700;5.40923460;2024-03-08T03:46:43;5.50;89.00
6536;DHT22;34330;52.08032700;5.40923460;2024-03-08T03:49:12;5.50;89.00
6536;DHT22;34330;52.08032700;5.40923460;2024-03-08T03:51:40;5.40;88.80
6536;DHT22;34330;52.08032700;5.40923460;2024-03-08T03:54:08;5.40;88.80
6536;DHT22;34330;52.08032700;5.40923460;2024-03-08T03:56:36;5.40;88.80
6536;DHT22;34330;52.08032700;5.40923460;2024-03-08T03:59:04;5.40;88.80
6536;DHT22;34330;52.08032700;5.40923460;2024-03-08T04:01:33;5.40;88.80
6536;DHT22;34330;52.08032700;5.40923460;2024-03-08T04:04:06;5.40;88.70
6536;DHT22;34330;52.08032700;5.40923460;2024-03-08T04:06:34;6.50;90.00
6536;DHT22;34330;52.08032700;5.40923460;2024-03-08T04:09:02;5.40;88.50
6536;DHT22;34330;52.08032700;5.40923460;2024-03-08T04:11:32;5.40;88.50
6536;DHT22;34330;52.08032700;5.40923460;2024-03-08T04:14:00;5.60;88.60
6536;DHT22;34330;52.08032700;5.40923460;2024-03-08T04:16:28;5.30;88.30
6536;DHT22;34330;52.08032700;5.40923460;2024-03-08T04:18:56;5.70;88.60
6536;DHT22;34330;52.08032700;5.40923460;2024-03-08T04:21:26;5.30;88.20
6536;DHT22;34330;52.08032700;5.40923460;2024-03-08T04:23:54;5.30;88.30
6536;DHT22;34330;52.08032700;5.40923460;2024-03-08T04:26:23;5.30;88.30
6536;DHT22;34330;52.08032700;5.40923460;2024-03-08T04:28:52;5.30;88.00
6536;DHT22;34330;52.08032700;5.40923460;2024-03-08T04:31:21;6.40;89.30
6536;DHT22;34330;52.08032700;5.40923460;2024-03-08T04:33:49;5.20;88.20
6536;DHT22;34330;52.08032700;5.40923460;2024-03-08T04:36:17;5.20;88.20
6536;DHT22;34330;52.08032700;5.40923460;2024-03-08T04:38:47;5.20;88.00
6536;DHT22;34330;52.08032700;5.40923460;2024-03-08T04:41:15;6.60;89.50
6536;DHT22;34330;52.08032700;5.40923460;2024-03-08T04:43:44;5.20;88.10
6536;DHT22;34330;52.08032700;5.40923460;2024-03-08T04:46:12;5.20;88.40
6536;DHT22;34330;52.08032700;5.40923460;2024-03-08T04:48:40;5.20;87.70
6536;DHT22;34330;52.08032700;5.40923460;2024-03-08T04:51:10;5.10;87.70
6536;DHT22;34330;52.08032700;5.40923460;2024-03-08T04:53:38;5.10;88.10
6536;DHT22;34330;52.08032700;5.40923460;2024-03-08T04:56:07;5.10;88.20
6536;DHT22;34330;52.08032700;5.40923460;2024-03-08T04:58:36;5.10;88.10
6536;DHT22;34330;52.08032700;5.40923460;2024-03-08T05:01:03;5.10;88.10
6536;DHT22;34330;52.08032700;5.40923460;2024-03-08T05:03:32;5.10;88.20
6536;DHT22;34330;52.08032700;5.40923460;2024-03-08T05:06:00;5.10;88.10
6536;DHT22;34330;52.08032700;5.40923460;2024-03-08T05:08:28;5.10;88.00
6536;DHT22;34330;52.08032700;5.40923460;2024-03-08T05:10:56;5.80;88.70
6536;DHT22;34330;52.08032700;5.40923460;2024-03-08T05:13:25;5.00;88.00
6536;DHT22;34330;52.08032700;5.40923460;2024-03-08T05:15:54;5.00;87.90
6536;DHT22;34330;52.08032700;5.40923460;2024-03-08T05:18:24;5.20;88.20
6536;DHT22;34330;52.08032700;5.40923460;2024-03-08T05:20:53;5.00;88.00
6536;DHT22;34330;52.08032700;5.40923460;2024-03-08T05:23:21;5.00;88.00
6536;DHT22;34330;52.08032700;5.40923460;2024-03-08T05:25:49;5.00;88.10
6536;DHT22;34330;52.08032700;5.40923460;2024-03-08T05:28:17;5.00;88.10
6536;DHT22;34330;52.08032700;5.40923460;2024-03-08T05:30:48;5.00;88.00
6536;DHT22;34330;52.08032700;5.40923460;2024-03-08T05:33:16;5.00;88.10
6536;DHT22;34330;52.08032700;5.40923460;2024-03-08T05:35:46;4.90;88.00
6536;DHT22;34330;52.08032700;5.40923460;2024-03-08T05:38:15;4.90;88.00
6536;DHT22;34330;52.08032700;5.40923460;2024-03-08T05:40:43;4.90;88.10
6536;DHT22;34330;52.08032700;5.40923460;2024-03-08T05:43:11;4.90;88.00
6536;DHT22;34330;52.08032700;5.40923460;2024-03-08T05:45:39;4.90;88.30
6536;DHT22;34330;52.08032700;5.40923460;2024-03-08T05:48:08;4.90;88.00
6536;DHT22;34330;52.08032700;5.40923460;2024-03-08T05:50:36;4.90;88.00
6536;DHT22;34330;52.08032700;5.40923460;2024-03-08T05:53:05;4.90;87.90
6536;DHT22;34330;52.08032700;5.40923460;2024-03-08T05:55:33;4.90;88.60
6536;DHT22;34330;52.08032700;5.40923460;2024-03-08T05:58:02;4.90;88.00
6536;DHT22;34330;52.08032700;5.40923460;2024-03-08T06:00:30;4.90;88.00
6536;DHT22;34330;52.08032700;5.40923460;2024-03-08T06:02:59;4.90;87.90
6536;DHT22;34330;52.08032700;5.40923460;2024-03-08T06:05:29;4.90;88.00
6536;DHT22;34330;52.08032700;5.40923460;2024-03-08T06:08:00;4.90;87.90
6536;DHT22;34330;52.08032700;5.40923460;2024-03-08T06:10:28;4.90;87.90
6536;DHT22;34330;52.08032700;5.40923460;2024-03-08T06:12:56;4.90;87.80
6536;DHT22;34330;52.08032700;5.40923460;2024-03-08T06:15:24;4.90;87.80
6536;DHT22;34330;52.08032700;5.40923460;2024-03-08T06:17:52;4.90;87.70
6536;DHT22;34330;52.08032700;5.40923460;2024-03-08T06:20:20;4.90;87.90
6536;DHT22;34330;52.08032700;5.40923460;2024-03-08T06:22:54;4.90;87.90
6536;DHT22;34330;52.08032700;5.40923460;2024-03-08T06:25:22;4.90;87.90
6536;DHT22;34330;52.08032700;5.40923460;2024-03-08T06:27:50;4.90;87.80
6536;DHT22;34330;52.08032700;5.40923460;2024-03-08T06:30:19;4.90;87.80
6536;DHT22;34330;52.08032700;5.40923460;2024-03-08T06:32:48;4.90;87.90
6536;DHT22;34330;52.08032700;5.40923460;2024-03-08T06:35:16;4.90;87.90
6536;DHT22;34330;52.08032700;5.40923460;2024-03-08T06:37:44;4.90;87.90
6536;DHT22;34330;52.08032700;5.40923460;2024-03-08T06:40:14;4.90;87.40
6536;DHT22;34330;52.08032700;5.40923460;2024-03-08T06:42:42;4.90;87.80
6536;DHT22;34330;52.08032700;5.40923460;2024-03-08T06:45:10;5.60;88.60
6536;DHT22;34330;52.08032700;5.40923460;2024-03-08T06:47:39;4.90;88.10
6536;DHT22;34330;52.08032700;5.40923460;2024-03-08T06:50:09;4.90;88.10
6536;DHT22;34330;52.08032700;5.40923460;2024-03-08T06:52:38;4.90;88.10
6536;DHT22;34330;52.08032700;5.40923460;2024-03-08T06:55:07;4.90;88.10
6536;DHT22;34330;52.08032700;5.40923460;2024-03-08T06:57:40;4.90;88.30
6536;DHT22;34330;52.08032700;5.40923460;2024-03-08T07:00:09;4.90;88.20
6536;DHT22;34330;52.08032700;5.40923460;2024-03-08T07:02:40;4.90;88.30
6536;DHT22;34330;52.08032700;5.40923460;2024-03-08T07:05:08;5.00;88.30
6536;DHT22;34330;52.08032700;5.40923460;2024-03-08T07:07:37;5.00;88.30
6536;DHT22;34330;52.08032700;5.40923460;2024-03-08T07:10:06;5.00;89.00
6536;DHT22;34330;52.08032700;5.40923460;2024-03-08T07:12:37;5.00;88.40
6536;DHT22;34330;52.08032700;5.40923460;2024-03-08T07:15:07;5.00;88.30
6536;DHT22;34330;52.08032700;5.40923460;2024-03-08T07:17:40;5.00;88.30
6536;DHT22;34330;52.08032700;5.40923460;2024-03-08T07:20:08;5.10;88.50
6536;DHT22;34330;52.08032700;5.40923460;2024-03-08T07:22:38;5.10;88.50
6536;DHT22;34330;52.08032700;5.40923460;2024-03-08T07:25:07;5.10;88.30
6536;DHT22;34330;52.08032700;5.40923460;2024-03-08T07:27:47;5.10;88.20
6536;DHT22;34330;52.08032700;5.40923460;2024-03-08T07:30:17;6.30;89.40
6536;DHT22;34330;52.08032700;5.40923460;2024-03-08T07:32:59;7.40;90.20
6536;DHT22;34330;52.08032700;5.40923460;2024-03-08T07:35:29;5.30;88.30
6536;DHT22;34330;52.08032700;5.40923460;2024-03-08T07:37:58;5.30;88.20
6536;DHT22;34330;52.08032700;5.40923460;2024-03-08T07:40:26;5.30;88.40
6536;DHT22;34330;52.08032700;5.40923460;2024-03-08T07:42:55;5.40;88.40
6536;DHT22;34330;52.08032700;5.40923460;2024-03-08T07:45:24;5.40;88.30
6536;DHT22;34330;52.08032700;5.40923460;2024-03-08T07:47:52;5.50;88.50
6536;DHT22;34330;52.08032700;5.40923460;2024-03-08T07:50:20;7.30;90.00
6536;DHT22;34330;52.08032700;5.40923460;2024-03-08T07:52:49;5.60;88.30
6536;DHT22;34330;52.08032700;5.40923460;2024-03-08T07:55:17;5.70;88.10
6536;DHT22;34330;52.08032700;5.40923460;2024-03-08T07:57:45;5.70;87.70
6536;DHT22;34330;52.08032700;5.40923460;2024-03-08T08:00:15;5.80;87.90
6536;DHT22;34330;52.08032700;5.40923460;2024-03-08T08:02:46;5.80;87.80
6536;DHT22;34330;52.08032700;5.40923460;2024-03-08T08:05:16;7.70;89.50
6536;DHT22;34330;52.08032700;5.40923460;2024-03-08T08:07:46;5.90;87.60
6536;DHT22;34330;52.08032700;5.40923460;2024-03-08T08:10:18;6.00;87.20
6536;DHT22;34330;52.08032700;5.40923460;2024-03-08T08:12:49;6.50;87.40
6536;DHT22;34330;52.08032700;5.40923460;2024-03-08T08:15:17;6.10;86.80
6536;DHT22;34330;52.08032700;5.40923460;2024-03-08T08:17:46;6.20;86.50
6536;DHT22;34330;52.08032700;5.40923460;2024-03-08T08:20:15;6.20;86.80
6536;DHT22;34330;52.08032700;5.40923460;2024-03-08T08:22:45;6.00;86.50
6536;DHT22;34330;52.08032700;5.40923460;2024-03-08T08:25:15;8.50;88.70
6536;DHT22;34330;52.08032700;5.40923460;2024-03-08T08:27:47;6.50;86.20
6536;DHT22;34330;52.08032700;5.40923460;2024-03-08T08:30:15;6.50;86.40
6536;DHT22;34330;52.08032700;5.40923460;2024-03-08T08:32:43;6.80;86.40
6536;DHT22;34330;52.08032700;5.40923460;2024-03-08T08:35:15;6.70;86.00
6536;DHT22;34330;52.08032700;5.40923460;2024-03-08T08:37:45;6.80;85.60
6536;DHT22;34330;52.08032700;5.40923460;2024-03-08T08:40:14;6.90;85.30
6536;DHT22;34330;52.08032700;5.40923460;2024-03-08T08:42:44;6.90;85.00
6536;DHT22;34330;52.08032700;5.40923460;2024-03-08T08:45:16;7.00;85.50
6536;DHT22;34330;52.08032700;5.40923460;2024-03-08T08:47:51;7.10;85.40
6536;DHT22;34330;52.08032700;5.40923460;2024-03-08T08:50:20;7.10;85.30
6536;DHT22;34330;52.08032700;5.40923460;2024-03-08T08:52:51;7.20;85.30
6536;DHT22;34330;52.08032700;5.40923460;2024-03-08T08:55:20;7.30;85.30
6536;DHT22;34330;52.08032700;5.40923460;2024-03-08T08:57:52;7.40;84.80
6536;DHT22;34330;52.08032700;5.40923460;2024-03-08T09:00:20;7.50;83.60
6536;DHT22;34330;52.08032700;5.40923460;2024-03-08T09:02:48;7.60;84.10
6536;DHT22;34330;52.08032700;5.40923460;2024-03-08T09:05:17;7.60;84.40
6536;DHT22;34330;52.08032700;5.40923460;2024-03-08T09:07:47;7.70;83.70
6536;DHT22;34330;52.08032700;5.40923460;2024-03-08T09:10:15;7.80;83.10
6536;DHT22;34330;52.08032700;5.40923460;2024-03-08T09:12:44;7.90;82.60
6536;DHT22;34330;52.08032700;5.40923460;2024-03-08T09:15:12;7.90;83.20
6536;DHT22;34330;52.08032700;5.40923460;2024-03-08T09:17:41;8.00;82.50
6536;DHT22;34330;52.08032700;5.40923460;2024-03-08T09:20:10;8.10;82.60
6536;DHT22;34330;52.08032700;5.40923460;2024-03-08T09:22:43;8.50;83.10
6536;DHT22;34330;52.08032700;5.40923460;2024-03-08T09:25:14;8.20;82.70
6536;DHT22;34330;52.08032700;5.40923460;2024-03-08T09:27:42;8.50;82.50
6536;DHT22;34330;52.08032700;5.40923460;2024-03-08T09:30:11;8.40;82.10
6536;DHT22;34330;52.08032700;5.40923460;2024-03-08T09:32:40;8.40;82.00
6536;DHT22;34330;52.08032700;5.40923460;2024-03-08T09:35:08;9.20;82.80
6536;DHT22;34330;52.08032700;5.40923460;2024-03-08T09:37:37;8.60;82.20
6536;DHT22;34330;52.08032700;5.40923460;2024-03-08T09:40:06;8.70;82.20
6536;DHT22;34330;52.08032700;5.40923460;2024-03-08T09:42:38;8.80;81.20
6536;DHT22;34330;52.08032700;5.40923460;2024-03-08T09:45:09;8.90;80.80
6536;DHT22;34330;52.08032700;5.40923460;2024-03-08T09:47:39;8.90;80.40
6536;DHT22;34330;52.08032700;5.40923460;2024-03-08T09:50:08;10.30;80.30
6536;DHT22;34330;52.08032700;5.40923460;2024-03-08T09:52:36;9.10;80.00
6536;DHT22;34330;52.08032700;5.40923460;2024-03-08T09:55:07;9.20;79.80
6536;DHT22;34330;52.08032700;5.40923460;2024-03-08T09:57:38;9.30;80.60
6536;DHT22;34330;52.08032700;5.40923460;2024-03-08T10:00:07;9.40;80.90
6536;DHT22;34330;52.08032700;5.40923460;2024-03-08T10:02:45;9.40;79.80
6536;DHT22;34330;52.08032700;5.40923460;2024-03-08T10:05:13;9.50;78.90
6536;DHT22;34330;52.08032700;5.40923460;2024-03-08T10:07:41;9.60;78.50
6536;DHT22;34330;52.08032700;5.40923460;2024-03-08T10:10:09;10.70;77.70
6536;DHT22;34330;52.08032700;5.40923460;2024-03-08T10:12:40;9.80;78.60
6536;DHT22;34330;52.08032700;5.40923460;2024-03-08T10:15:12;9.90;78.50
6536;DHT22;34330;52.08032700;5.40923460;2024-03-08T10:17:43;9.90;78.00
6536;DHT22;34330;52.08032700;5.40923460;2024-03-08T10:20:14;10.00;76.50
6536;DHT22;34330;52.08032700;5.40923460;2024-03-08T10:22:43;10.70;77.10
6536;DHT22;34330;52.08032700;5.40923460;2024-03-08T10:25:24;10.20;75.60
6536;DHT22;34330;52.08032700;5.40923460;2024-03-08T10:27:53;10.20;75.60
6536;DHT22;34330;52.08032700;5.40923460;2024-03-08T10:30:22;10.30;75.30
6536;DHT22;34330;52.08032700;5.40923460;2024-03-08T10:32:53;10.40;74.50
6536;DHT22;34330;52.08032700;5.40923460;2024-03-08T10:35:21;10.50;74.60
6536;DHT22;34330;52.08032700;5.40923460;2024-03-08T10:37:50;10.50;74.40
6536;DHT22;34330;52.08032700;5.40923460;2024-03-08T10:40:26;10.60;74.30
6536;DHT22;34330;52.08032700;5.40923460;2024-03-08T10:42:57;10.70;73.60
6536;DHT22;34330;52.08032700;5.40923460;2024-03-08T10:45:31;10.70;72.80
6536;DHT22;34330;52.08032700;5.40923460;2024-03-08T10:48:17;10.80;72.10
6536;DHT22;34330;52.08032700;5.40923460;2024-03-08T10:50:49;10.90;72.60
6536;DHT22;34330;52.08032700;5.40923460;2024-03-08T10:53:19;10.90;73.30
6536;DHT22;34330;52.08032700;5.40923460;2024-03-08T10:55:49;11.00;73.60
6536;DHT22;34330;52.08032700;5.40923460;2024-03-08T10:58:22;11.10;72.60
6536;DHT22;34330;52.08032700;5.40923460;2024-03-08T11:00:54;11.10;73.60
6536;DHT22;34330;52.08032700;5.40923460;2024-03-08T11:03:45;11.20;73.30
6536;DHT22;34330;52.08032700;5.40923460;2024-03-08T11:06:17;11.30;71.80
6536;DHT22;34330;52.08032700;5.40923460;2024-03-08T11:08:49;11.30;72.90
6536;DHT22;34330;52.08032700;5.40923460;2024-03-08T11:11:25;11.40;72.60
6536;DHT22;34330;52.08032700;5.40923460;2024-03-08T11:14:02;11.50;71.00
6536;DHT22;34330;52.08032700;5.40923460;2024-03-08T11:16:38;11.60;71.00
6536;DHT22;34330;52.08032700;5.40923460;2024-03-08T11:19:27;11.70;70.30
6536;DHT22;34330;52.08032700;5.40923460;2024-03-08T11:21:59;11.70;71.10
6536;DHT22;34330;52.08032700;5.40923460;2024-03-08T11:24:28;11.80;70.90
6536;DHT22;34330;52.08032700;5.40923460;2024-03-08T11:27:00;11.90;70.60
6536;DHT22;34330;52.08032700;5.40923460;2024-03-08T11:29:36;11.90;70.40
6536;DHT22;34330;52.08032700;5.40923460;2024-03-08T11:32:10;12.00;69.20
6536;DHT22;34330;52.08032700;5.40923460;2024-03-08T11:34:40;12.10;69.60
6536;DHT22;34330;52.08032700;5.40923460;2024-03-08T11:37:14;12.10;68.50
6536;DHT22;34330;52.08032700;5.40923460;2024-03-08T11:39:47;12.20;68.60
6536;DHT22;34330;52.08032700;5.40923460;2024-03-08T11:42:16;12.20;67.10
6536;DHT22;34330;52.08032700;5.40923460;2024-03-08T11:44:46;12.30;67.70
6536;DHT22;34330;52.08032700;5.40923460;2024-03-08T11:47:15;12.30;66.90
6536;DHT22;34330;52.08032700;5.40923460;2024-03-08T11:49:44;12.40;67.30
6536;DHT22;34330;52.08032700;5.40923460;2024-03-08T11:52:12;12.50;65.30
6536;DHT22;34330;52.08032700;5.40923460;2024-03-08T11:54:41;12.50;65.20
6536;DHT22;34330;52.08032700;5.40923460;2024-03-08T11:57:10;12.60;65.60
6536;DHT22;34330;52.08032700;5.40923460;2024-03-08T11:59:39;12.60;64.50
6536;DHT22;34330;52.08032700;5.40923460;2024-03-08T12:02:08;12.70;65.70
6536;DHT22;34330;52.08032700;5.40923460;2024-03-08T12:04:37;12.80;63.00
6536;DHT22;34330;52.08032700;5.40923460;2024-03-08T12:07:09;12.80;64.10
6536;DHT22;34330;52.08032700;5.40923460;2024-03-08T12:09:40;12.90;62.80
6536;DHT22;34330;52.08032700;5.40923460;2024-03-08T12:12:13;13.00;62.50
6536;DHT22;34330;52.08032700;5.40923460;2024-03-08T12:14:43;13.00;62.50
6536;DHT22;34330;52.08032700;5.40923460;2024-03-08T12:17:13;13.10;61.70
6536;DHT22;34330;52.08032700;5.40923460;2024-03-08T12:19:46;13.10;61.50
6536;DHT22;34330;52.08032700;5.40923460;2024-03-08T12:22:15;13.20;61.90
6536;DHT22;34330;52.08032700;5.40923460;2024-03-08T12:25:03;13.20;59.50
6536;DHT22;34330;52.08032700;5.40923460;2024-03-08T12:27:31;13.30;59.20
6536;DHT22;34330;52.08032700;5.40923460;2024-03-08T12:30:16;13.30;59.10
6536;DHT22;34330;52.08032700;5.40923460;2024-03-08T12:32:55;13.30;59.70
6536;DHT22;34330;52.08032700;5.40923460;2024-03-08T12:35:29;13.30;62.00
6536;DHT22;34330;52.08032700;5.40923460;2024-03-08T12:37:58;13.30;60.30
6536;DHT22;34330;52.08032700;5.40923460;2024-03-08T12:40:28;13.40;60.10
6536;DHT22;34330;52.08032700;5.40923460;2024-03-08T12:42:58;13.40;59.10
6536;DHT22;34330;52.08032700;5.40923460;2024-03-08T12:45:27;13.40;60.40
6536;DHT22;34330;52.08032700;5.40923460;2024-03-08T12:47:56;13.40;60.40
6536;DHT22;34330;52.08032700;5.40923460;2024-03-08T12:50:25;13.50;58.80
6536;DHT22;34330;52.08032700;5.40923460;2024-03-08T12:52:53;13.80;58.90
6536;DHT22;34330;52.08032700;5.40923460;2024-03-08T12:55:23;13.50;57.60
6536;DHT22;34330;52.08032700;5.40923460;2024-03-08T12:57:51;13.50;57.40
6536;DHT22;34330;52.08032700;5.40923460;2024-03-08T13:00:20;13.50;59.00
6536;DHT22;34330;52.08032700;5.40923460;2024-03-08T13:02:50;13.60;58.20
6536;DHT22;34330;52.08032700;5.40923460;2024-03-08T13:05:20;13.50;57.60
6536;DHT22;34330;52.08032700;5.40923460;2024-03-08T13:07:48;13.60;57.40
6536;DHT22;34330;52.08032700;5.40923460;2024-03-08T13:10:16;13.60;57.90
6536;DHT22;34330;52.08032700;5.40923460;2024-03-08T13:12:47;13.60;58.20
6536;DHT22;34330;52.08032700;5.40923460;2024-03-08T13:15:18;13.60;58.10
6536;DHT22;34330;52.08032700;5.40923460;2024-03-08T13:17:48;13.60;56.90
6536;DHT22;34330;52.08032700;5.40923460;2024-03-08T13:20:16;13.90;58.20
6536;DHT22;34330;52.08032700;5.40923460;2024-03-08T13:22:58;13.70;57.80
6536;DHT22;34330;52.08032700;5.40923460;2024-03-08T13:25:28;13.70;58.50
6536;DHT22;34330;52.08032700;5.40923460;2024-03-08T13:27:56;13.70;56.80
6536;DHT22;34330;52.08032700;5.40923460;2024-03-08T13:30:27;13.80;55.40
6536;DHT22;34330;52.08032700;5.40923460;2024-03-08T13:32:58;13.80;55.80
6536;DHT22;34330;52.08032700;5.40923460;2024-03-08T13:35:26;14.40;55.60
6536;DHT22;34330;52.08032700;5.40923460;2024-03-08T13:37:58;13.80;55.80
6536;DHT22;34330;52.08032700;5.40923460;2024-03-08T13:40:27;13.80;56.10
6536;DHT22;34330;52.08032700;5.40923460;2024-03-08T13:42:55;13.80;57.10
6536;DHT22;34330;52.08032700;5.40923460;2024-03-08T13:45:25;13.80;55.90
6536;DHT22;34330;52.08032700;5.40923460;2024-03-08T13:47:55;13.80;56.20
6536;DHT22;34330;52.08032700;5.40923460;2024-03-08T13:50:26;14.90;57.20
6536;DHT22;34330;52.08032700;5.40923460;2024-03-08T13:52:54;13.90;56.10
6536;DHT22;34330;52.08032700;5.40923460;2024-03-08T13:55:24;13.90;56.10